createdAt,value
2022-10-07T00:02:43.563Z,53.00
2022-10-07T00:05:36.977Z,53.00
2022-10-07T00:08:29.960Z,53.00
2022-10-07T00:11:26.459Z,52.90
2022-10-07T00:14:19.853Z,52.90
2022-10-07T00:17:13.173Z,52.90
2022-10-07T00:20:06.802Z,52.90
2022-10-07T00:22:59.479Z,52.90
2022-10-07T00:25:53.006Z,52.90
2022-10-07T00:28:47.795Z,52.90
2022-10-07T00:31:41.586Z,52.90
2022-10-07T00:34:34.731Z,52.80
2022-10-07T00:37:27.921Z,52.80
2022-10-07T00:40:20.519Z,52.80
2022-10-07T00:43:26.238Z,52.80
2022-10-07T00:46:29.523Z,52.80
2022-10-07T00:49:23.522Z,52.90
2022-10-07T00:52:20.371Z,52.80
2022-10-07T00:55:17.763Z,52.80
2022-10-07T00:58:11.173Z,52.80
2022-10-07T01:01:04.555Z,52.80
2022-10-07T01:03:59.387Z,52.80
2022-10-07T01:06:53.041Z,52.80
2022-10-07T01:09:46.574Z,52.80
2022-10-07T01:12:51.397Z,52.80
2022-10-07T01:15:52.156Z,52.80
2022-10-07T01:18:55.034Z,52.80
2022-10-07T01:22:02.782Z,52.90
2022-10-07T01:25:12.430Z,52.80
2022-10-07T01:28:10.995Z,52.80
2022-10-07T01:31:07.305Z,52.80
2022-10-07T01:34:02.866Z,52.80
2022-10-07T01:36:57.471Z,52.80
2022-10-07T01:39:54.589Z,52.80
2022-10-07T01:42:48.675Z,52.80
2022-10-07T01:45:43.857Z,52.80
2022-10-07T01:48:37.072Z,52.80
2022-10-07T01:51:32.763Z,52.80
2022-10-07T01:54:35.202Z,52.80
2022-10-07T01:57:37.775Z,52.90
2022-10-07T02:00:31.155Z,53.50
2022-10-07T02:03:55.977Z,52.80
2022-10-07T02:06:54.631Z,52.80
2022-10-07T02:09:53.667Z,52.80
2022-10-07T02:12:52.155Z,52.80
2022-10-07T02:15:49.134Z,52.90
2022-10-07T02:18:48.006Z,52.80
2022-10-07T02:21:44.272Z,52.80
2022-10-07T02:24:38.831Z,52.80
2022-10-07T02:27:35.572Z,52.80
2022-10-07T02:30:29.029Z,52.80
2022-10-07T02:33:25.680Z,52.80
2022-10-07T02:36:23.288Z,52.70
2022-10-07T02:39:17.348Z,52.80
2022-10-07T02:42:17.559Z,52.70
2022-10-07T02:45:18.037Z,52.80
2022-10-07T02:48:18.099Z,52.70
2022-10-07T02:51:21.043Z,52.70
2022-10-07T02:54:23.089Z,52.60
2022-10-07T02:57:19.705Z,52.60
2022-10-07T03:00:14.998Z,52.60
2022-10-07T03:03:08.797Z,52.60
2022-10-07T03:06:01.757Z,52.60
2022-10-07T03:08:57.376Z,52.60
2022-10-07T03:11:52.359Z,52.60
2022-10-07T03:14:49.746Z,52.60
2022-10-07T03:17:43.143Z,52.60
2022-10-07T03:20:37.101Z,52.60
2022-10-07T03:23:31.410Z,52.60
2022-10-07T03:26:24.965Z,52.60
2022-10-07T03:29:19.616Z,52.60
2022-10-07T03:32:13.048Z,52.60
2022-10-07T03:35:06.802Z,52.50
2022-10-07T03:37:59.901Z,52.50
2022-10-07T03:40:52.800Z,52.50
2022-10-07T03:43:46.415Z,52.50
2022-10-07T03:46:41.516Z,52.40
2022-10-07T03:49:35.652Z,52.40
2022-10-07T03:52:28.924Z,52.40
2022-10-07T03:55:21.680Z,52.30
2022-10-07T03:58:15.093Z,52.40
2022-10-07T04:01:09.451Z,52.40
2022-10-07T04:04:04.040Z,52.40
2022-10-07T04:06:57.205Z,52.40
2022-10-07T04:09:50.057Z,52.40
2022-10-07T04:12:43.451Z,52.40
2022-10-07T04:15:37.787Z,52.40
2022-10-07T04:18:31.018Z,52.40
2022-10-07T04:21:25.319Z,52.40
2022-10-07T04:24:17.983Z,52.40
2022-10-07T04:27:23.451Z,52.30
2022-10-07T04:30:26.599Z,52.20
2022-10-07T04:33:21.258Z,52.20
2022-10-07T04:36:14.905Z,52.20
2022-10-07T04:39:09.487Z,52.20
2022-10-07T04:42:03.541Z,52.10
2022-10-07T04:44:57.069Z,52.10
2022-10-07T04:47:50.089Z,52.00
2022-10-07T04:50:43.184Z,52.10
2022-10-07T04:53:37.132Z,52.10
2022-10-07T04:56:31.269Z,52.20
2022-10-07T04:59:26.179Z,52.20
2022-10-07T05:02:22.091Z,52.10
2022-10-07T05:05:15.474Z,52.20
2022-10-07T05:08:09.125Z,52.20
2022-10-07T05:11:03.512Z,52.20
2022-10-07T05:13:58.424Z,52.30
2022-10-07T05:16:52.932Z,52.20
2022-10-07T05:19:45.904Z,52.20
2022-10-07T05:22:39.504Z,52.20
2022-10-07T05:25:33.315Z,52.20
2022-10-07T05:28:27.063Z,52.20
2022-10-07T05:31:21.926Z,52.20
2022-10-07T05:34:15.385Z,52.20
2022-10-07T05:37:07.974Z,52.20
2022-10-07T05:40:01.016Z,52.20
2022-10-07T05:42:54.078Z,52.20
2022-10-07T05:45:47.535Z,52.20
2022-10-07T05:48:46.274Z,52.10
2022-10-07T05:51:39.329Z,52.20
2022-10-07T05:54:33.098Z,52.10
2022-10-07T05:57:26.738Z,52.10
2022-10-07T06:00:20.863Z,52.10
2022-10-07T06:03:14.076Z,52.10
2022-10-07T06:06:08.885Z,52.10
2022-10-07T06:09:16.302Z,52.10
2022-10-07T06:12:28.597Z,52.00
2022-10-07T06:15:21.762Z,52.00
2022-10-07T06:18:15.417Z,52.10
2022-10-07T06:21:09.156Z,51.90
2022-10-07T06:24:02.038Z,51.90
2022-10-07T06:26:56.059Z,51.90
2022-10-07T06:29:49.033Z,51.90
2022-10-07T06:32:42.332Z,51.90
2022-10-07T06:35:35.082Z,51.80
2022-10-07T06:38:29.342Z,51.80
2022-10-07T06:41:22.959Z,51.80
2022-10-07T06:44:16.103Z,51.80
2022-10-07T06:47:11.874Z,51.80
2022-10-07T06:50:05.914Z,51.90
2022-10-07T06:52:59.676Z,51.80
2022-10-07T06:55:57.768Z,51.80
2022-10-07T06:58:51.263Z,51.80
2022-10-07T07:01:43.962Z,51.80
2022-10-07T07:04:37.395Z,51.80
2022-10-07T07:07:30.036Z,51.80
2022-10-07T07:10:23.423Z,51.60
2022-10-07T07:13:17.800Z,51.30
2022-10-07T07:16:11.355Z,51.00
2022-10-07T07:19:08.415Z,51.10
2022-10-07T07:22:01.127Z,51.00
2022-10-07T07:24:54.171Z,51.00
2022-10-07T07:27:48.823Z,51.10
2022-10-07T07:30:45.495Z,51.10
2022-10-07T07:33:40.924Z,51.20
2022-10-07T07:36:36.117Z,51.20
2022-10-07T07:39:28.918Z,51.30
2022-10-07T07:42:22.727Z,51.30
2022-10-07T07:45:17.998Z,51.40
2022-10-07T07:48:15.182Z,51.40
2022-10-07T07:51:10.724Z,51.50
2022-10-07T07:54:04.725Z,51.50
2022-10-07T07:56:59.103Z,51.50
2022-10-07T07:59:52.450Z,51.50
2022-10-07T08:02:45.162Z,51.60
2022-10-07T08:05:39.970Z,51.60
2022-10-07T08:08:33.594Z,51.60
2022-10-07T08:11:29.595Z,51.60
2022-10-07T08:14:23.455Z,51.70
2022-10-07T08:17:17.972Z,51.70
2022-10-07T08:20:11.963Z,51.70
2022-10-07T08:23:07.125Z,51.80
2022-10-07T08:26:01.721Z,51.80
2022-10-07T08:28:55.467Z,51.50
2022-10-07T08:31:48.539Z,51.40
2022-10-07T08:34:41.147Z,51.60
2022-10-07T08:37:34.169Z,51.30
2022-10-07T08:40:28.553Z,51.10
2022-10-07T08:43:24.632Z,50.90
2022-10-07T08:46:21.034Z,50.80
2022-10-07T08:49:17.375Z,50.70
2022-10-07T08:52:28.212Z,50.60
2022-10-07T08:55:28.974Z,50.50
2022-10-07T08:58:40.849Z,50.40
2022-10-07T09:01:44.830Z,50.50
2022-10-07T09:04:54.776Z,50.50
2022-10-07T09:07:52.950Z,51.10
2022-10-07T09:10:50.532Z,50.60
2022-10-07T09:13:49.020Z,50.70
2022-10-07T09:16:46.264Z,50.80
2022-10-07T09:19:44.371Z,50.70
2022-10-07T09:22:39.928Z,50.80
2022-10-07T09:25:34.840Z,50.90
2022-10-07T09:28:31.414Z,50.80
2022-10-07T09:31:26.218Z,50.90
2022-10-07T09:34:23.188Z,50.90
2022-10-07T09:37:20.561Z,50.90
2022-10-07T09:40:31.471Z,51.00
2022-10-07T09:43:24.604Z,51.10
2022-10-07T09:46:32.986Z,51.20
2022-10-07T09:49:40.916Z,51.20
2022-10-07T09:52:34.073Z,51.20
2022-10-07T09:55:37.429Z,51.20
2022-10-07T09:58:32.007Z,51.20
2022-10-07T10:01:26.800Z,51.20
2022-10-07T10:04:24.916Z,51.10
2022-10-07T10:07:21.077Z,51.00
2022-10-07T10:10:19.934Z,51.10
2022-10-07T10:13:27.223Z,51.00
2022-10-07T10:16:36.037Z,51.00
2022-10-07T10:19:32.508Z,50.90
2022-10-07T10:22:31.529Z,50.90
2022-10-07T10:25:51.335Z,50.80
2022-10-07T10:28:51.040Z,50.90
2022-10-07T10:32:02.781Z,50.90
2022-10-07T10:35:03.821Z,50.90
2022-10-07T10:38:20.732Z,51.10
2022-10-07T10:41:24.284Z,51.10
2022-10-07T10:44:32.836Z,51.00
2022-10-07T10:47:37.199Z,51.00
2022-10-07T10:50:34.541Z,51.00
2022-10-07T10:53:38.193Z,51.00
2022-10-07T10:56:41.393Z,50.90
2022-10-07T10:59:58.617Z,50.70
2022-10-07T11:03:12.699Z,50.80
2022-10-07T11:06:09.841Z,50.20
2022-10-07T11:09:05.866Z,50.60
2022-10-07T11:12:04.679Z,50.40
2022-10-07T11:15:03.619Z,50.10
2022-10-07T11:18:03.125Z,50.40
2022-10-07T11:20:59.340Z,50.10
2022-10-07T11:24:02.072Z,50.40
2022-10-07T11:26:59.617Z,50.70
2022-10-07T11:30:00.019Z,50.30
2022-10-07T11:32:59.955Z,50.20
2022-10-07T11:35:58.440Z,49.60
2022-10-07T11:38:53.465Z,50.10
2022-10-07T11:41:53.145Z,50.10
2022-10-07T11:44:54.498Z,50.20
2022-10-07T11:47:50.667Z,49.40
2022-10-07T11:50:57.238Z,49.50
2022-10-07T11:53:54.151Z,49.70
2022-10-07T11:56:50.555Z,49.70
2022-10-07T11:59:46.128Z,49.70
2022-10-07T12:02:46.916Z,49.60
2022-10-07T12:06:11.481Z,49.30
2022-10-07T12:09:37.730Z,49.60
2022-10-07T12:12:48.579Z,49.70
2022-10-07T12:15:43.373Z,49.60
2022-10-07T12:18:36.630Z,49.60
2022-10-07T12:21:31.263Z,49.70
2022-10-07T12:24:24.678Z,49.40
2022-10-07T12:27:19.090Z,49.50
2022-10-07T12:30:50.431Z,49.50
2022-10-07T12:33:57.418Z,49.40
2022-10-07T12:36:50.400Z,49.60
2022-10-07T12:39:43.594Z,49.70
2022-10-07T12:42:36.915Z,49.60
2022-10-07T12:45:31.992Z,49.60
2022-10-07T12:48:31.366Z,49.50
2022-10-07T12:51:28.022Z,49.60
2022-10-07T12:54:29.912Z,49.30
2022-10-07T12:57:26.142Z,49.50
2022-10-07T13:00:22.974Z,49.70
2022-10-07T13:03:46.580Z,49.70
2022-10-07T13:07:24.466Z,49.80
2022-10-07T13:10:38.584Z,49.50
2022-10-07T13:13:37.527Z,49.70
2022-10-07T13:16:35.721Z,49.60
2022-10-07T13:19:36.093Z,49.80
2022-10-07T13:22:30.723Z,49.60
2022-10-07T13:25:23.685Z,49.70
2022-10-07T13:28:19.291Z,49.80
2022-10-07T13:31:15.431Z,49.80
2022-10-07T13:34:17.909Z,50.00
2022-10-07T13:37:30.274Z,50.10
2022-10-07T13:40:28.539Z,50.00
2022-10-07T13:43:24.575Z,50.10
2022-10-07T13:46:17.755Z,50.10
2022-10-07T13:49:22.535Z,50.10
2022-10-07T13:52:22.731Z,50.10
2022-10-07T13:55:30.580Z,50.50
2022-10-07T13:58:23.563Z,51.20
2022-10-07T14:01:16.873Z,50.70
2022-10-07T14:04:18.816Z,50.50
2022-10-07T14:07:19.307Z,51.10
2022-10-07T14:10:13.580Z,50.40
2022-10-07T14:13:09.018Z,50.50
2022-10-07T14:16:02.492Z,50.60
2022-10-07T14:18:56.963Z,50.60
2022-10-07T14:21:50.630Z,51.10
2022-10-07T14:24:51.523Z,50.60
2022-10-07T14:28:16.852Z,50.90
2022-10-07T14:31:36.733Z,50.90
2022-10-07T14:34:46.757Z,51.00
2022-10-07T14:37:39.477Z,51.10
2022-10-07T14:40:32.662Z,51.00
2022-10-07T14:43:26.239Z,51.10
2022-10-07T14:46:23.324Z,51.10
2022-10-07T14:49:17.586Z,51.20
2022-10-07T14:52:14.492Z,51.20
2022-10-07T14:55:14.548Z,51.30
2022-10-07T14:58:09.674Z,51.30
2022-10-07T15:01:02.781Z,51.40
2022-10-07T15:03:57.116Z,51.40
2022-10-07T15:06:51.149Z,51.40
2022-10-07T15:09:46.691Z,51.50
2022-10-07T15:12:39.481Z,51.50
2022-10-07T15:15:32.831Z,51.50
2022-10-07T15:18:25.607Z,51.50
2022-10-07T15:21:19.859Z,51.50
2022-10-07T15:24:12.828Z,51.50
2022-10-07T15:27:06.558Z,51.60
2022-10-07T15:30:00.116Z,51.60
2022-10-07T15:32:56.090Z,51.60
2022-10-07T15:35:49.480Z,51.70
2022-10-07T15:38:43.663Z,51.70
2022-10-07T15:41:39.022Z,51.90
2022-10-07T15:44:32.599Z,51.90
2022-10-07T15:47:27.148Z,52.00
2022-10-07T15:50:20.724Z,52.00
2022-10-07T15:53:14.517Z,52.00
2022-10-07T15:56:10.165Z,52.10
2022-10-07T15:59:04.326Z,52.20
2022-10-07T16:01:57.953Z,52.10
2022-10-07T16:04:52.125Z,52.20
2022-10-07T16:07:45.857Z,52.30
2022-10-07T16:10:38.920Z,52.30
2022-10-07T16:13:35.020Z,52.50
2022-10-07T16:16:31.031Z,52.50
2022-10-07T16:19:24.747Z,52.40
2022-10-07T16:22:17.982Z,52.40
2022-10-07T16:25:12.776Z,52.40
2022-10-07T16:28:23.528Z,52.40
2022-10-07T16:31:18.054Z,52.50
2022-10-07T16:34:13.496Z,52.40
2022-10-07T16:37:07.120Z,52.50
2022-10-07T16:40:00.635Z,52.50
2022-10-07T16:42:53.743Z,52.50
2022-10-07T16:45:46.583Z,52.60
2022-10-07T16:48:43.840Z,53.30
2022-10-07T16:51:38.118Z,52.70
2022-10-07T16:54:35.154Z,52.70
2022-10-07T16:57:28.517Z,53.30
2022-10-07T17:00:23.004Z,53.10
2022-10-07T17:03:16.595Z,53.00
2022-10-07T17:06:14.232Z,53.00
2022-10-07T17:09:07.638Z,53.00
2022-10-07T17:12:00.930Z,53.10
2022-10-07T17:14:53.341Z,53.20
2022-10-07T17:17:47.312Z,53.20
2022-10-07T17:20:40.960Z,53.20
2022-10-07T17:23:35.836Z,53.20
2022-10-07T17:26:29.000Z,53.20
2022-10-07T17:29:24.894Z,53.40
2022-10-07T17:32:17.828Z,53.30
2022-10-07T17:35:11.355Z,53.30
2022-10-07T17:38:05.740Z,55.20
2022-10-07T17:41:00.616Z,55.30
2022-10-07T17:43:55.714Z,55.20
2022-10-07T17:46:50.320Z,54.70
2022-10-07T17:49:44.107Z,54.50
2022-10-07T17:52:37.738Z,54.10
2022-10-07T17:55:33.393Z,53.90
2022-10-07T17:58:29.531Z,53.70
2022-10-07T18:01:26.917Z,53.50
2022-10-07T18:04:24.560Z,53.40
2022-10-07T18:07:19.027Z,53.30
2022-10-07T18:10:12.398Z,53.20
2022-10-07T18:13:23.192Z,53.20
2022-10-07T18:16:18.656Z,53.20
2022-10-07T18:19:11.956Z,53.10
2022-10-07T18:22:04.574Z,53.10
2022-10-07T18:24:58.376Z,53.10
2022-10-07T18:27:52.899Z,53.00
2022-10-07T18:30:45.808Z,53.00
2022-10-07T18:33:40.230Z,53.00
2022-10-07T18:36:35.542Z,52.90
2022-10-07T18:39:29.634Z,52.90
2022-10-07T18:42:22.845Z,53.00
2022-10-07T18:45:15.558Z,52.90
2022-10-07T18:48:09.152Z,53.00
2022-10-07T18:51:04.589Z,53.00
2022-10-07T18:53:57.932Z,53.60
2022-10-07T18:56:52.034Z,53.00
2022-10-07T18:59:45.022Z,53.00
2022-10-07T19:02:38.293Z,53.00
2022-10-07T19:05:33.971Z,53.00
2022-10-07T19:08:29.787Z,53.00
2022-10-07T19:11:23.263Z,53.00
2022-10-07T19:14:17.253Z,53.00
2022-10-07T19:17:11.571Z,53.00
2022-10-07T19:20:04.762Z,53.00
2022-10-07T19:22:58.042Z,53.10
2022-10-07T19:25:54.527Z,53.00
2022-10-07T19:28:48.208Z,53.00
2022-10-07T19:31:43.972Z,53.00
2022-10-07T19:34:37.570Z,53.00
2022-10-07T19:37:31.072Z,53.00
2022-10-07T19:40:24.488Z,53.00
2022-10-07T19:43:19.528Z,53.00
2022-10-07T19:46:12.696Z,52.90
2022-10-07T19:49:07.272Z,53.00
2022-10-07T19:52:01.031Z,53.00
2022-10-07T19:54:54.797Z,53.00
2022-10-07T19:57:49.894Z,53.00
2022-10-07T20:00:44.770Z,53.00
2022-10-07T20:03:38.306Z,53.00
2022-10-07T20:06:32.254Z,53.10
2022-10-07T20:09:25.908Z,53.10
2022-10-07T20:12:19.521Z,53.10
2022-10-07T20:15:13.413Z,53.10
2022-10-07T20:18:08.863Z,53.10
2022-10-07T20:21:02.715Z,53.10
2022-10-07T20:23:58.269Z,53.10
2022-10-07T20:26:51.867Z,53.10
2022-10-07T20:29:58.000Z,53.10
2022-10-07T20:32:50.973Z,53.20
2022-10-07T20:35:46.144Z,53.10
2022-10-07T20:38:57.482Z,53.10
2022-10-07T20:42:09.212Z,53.20
2022-10-07T20:45:04.126Z,53.20
2022-10-07T20:47:59.445Z,53.10
2022-10-07T20:50:54.354Z,53.10
2022-10-07T20:53:49.779Z,53.10
2022-10-07T20:56:42.737Z,53.10
2022-10-07T20:59:36.333Z,53.10
2022-10-07T21:02:29.870Z,53.10
2022-10-07T21:05:23.026Z,53.10
2022-10-07T21:08:18.371Z,53.10
2022-10-07T21:11:11.705Z,53.20
2022-10-07T21:14:04.812Z,53.50
2022-10-07T21:16:58.722Z,53.30
2022-10-07T21:19:52.289Z,53.20
2022-10-07T21:22:46.012Z,53.10
2022-10-07T21:25:41.474Z,53.00
2022-10-07T21:28:36.697Z,53.00
2022-10-07T21:31:31.264Z,53.00
2022-10-07T21:34:25.565Z,53.00
2022-10-07T21:37:18.659Z,53.00
2022-10-07T21:40:11.723Z,53.10
2022-10-07T21:43:06.021Z,53.00
2022-10-07T21:45:59.193Z,53.00
2022-10-07T21:48:54.221Z,53.00
2022-10-07T21:51:47.701Z,52.90
2022-10-07T21:54:41.079Z,52.90
2022-10-07T21:57:33.970Z,52.90
2022-10-07T22:00:28.295Z,52.80
2022-10-07T22:03:21.635Z,52.80
2022-10-07T22:06:17.004Z,52.80
2022-10-07T22:09:09.821Z,52.80
2022-10-07T22:12:03.035Z,52.80
2022-10-07T22:14:55.614Z,53.00
2022-10-07T22:17:50.933Z,52.90
2022-10-07T22:20:44.411Z,52.90
2022-10-07T22:23:38.139Z,52.80
2022-10-07T22:26:32.850Z,52.80
2022-10-07T22:29:25.822Z,52.70
2022-10-07T22:32:19.192Z,52.60
2022-10-07T22:35:30.572Z,52.70
2022-10-07T22:38:24.297Z,52.70
2022-10-07T22:41:19.740Z,52.70
2022-10-07T22:44:13.439Z,52.60
2022-10-07T22:47:06.999Z,52.60
2022-10-07T22:49:59.763Z,52.60
2022-10-07T22:52:54.452Z,52.60
2022-10-07T22:55:48.086Z,52.60
2022-10-07T22:58:42.389Z,52.60
2022-10-07T23:01:36.552Z,52.60
2022-10-07T23:04:30.062Z,52.50
2022-10-07T23:07:23.092Z,52.50
2022-10-07T23:10:17.552Z,52.50
2022-10-07T23:13:10.617Z,52.50
2022-10-07T23:16:06.012Z,52.50
2022-10-07T23:18:59.743Z,52.50
2022-10-07T23:21:52.744Z,52.50
2022-10-07T23:24:46.070Z,52.50
2022-10-07T23:27:42.113Z,52.50
2022-10-07T23:30:38.382Z,52.40
2022-10-07T23:33:32.970Z,52.50
2022-10-07T23:36:26.704Z,52.50
2022-10-07T23:39:19.875Z,52.60
2022-10-07T23:42:13.202Z,52.50
2022-10-07T23:45:08.503Z,52.60
2022-10-07T23:48:02.198Z,52.60
2022-10-07T23:50:55.784Z,52.70
2022-10-07T23:53:49.406Z,52.60
2022-10-07T23:56:43.097Z,52.60
2022-10-07T23:59:36.314Z,52.40
